METAR Data
IDs: Format: Raw Decoded Include TAF

Data at: 0018 UTC 24 May 2022

METAR for:KDUH (Toledo/Suburban Arpt, MI, US)
Text:KDUH 240015Z AUTO 07005KT 10SM OVC050 14/08 A3027 RMK AO2 T01380078
Temperature: 13.8°C ( 57°F)
Dewpoint: 7.8°C ( 46°F) [RH = 67%]
Pressure (altimeter):30.27 inches Hg (1025.1 mb)
Winds:from the ENE (70 degrees) at 6 MPH (5 knots; 2.6 m/s)
Visibility:10 or more sm (16+ km)
Ceiling:5000 feet AGL
Clouds: overcast cloud deck at 5000 feet AGL
QC Flag:automated observation with no human augmentation